sensor_id;sensor_type;location;lat;lon;timestamp;temperature;humidity
11656;DHT22;5884;43.618;1.438;2022-09-09T04:47:35;19.30;99.90
11656;DHT22;5884;43.618;1.438;2022-09-09T04:50:02;19.20;99.90
11656;DHT22;5884;43.618;1.438;2022-09-09T04:52:30;19.20;99.90
11656;DHT22;5884;43.618;1.438;2022-09-09T04:54:58;19.20;99.90
11656;DHT22;5884;43.618;1.438;2022-09-09T04:57:26;19.20;99.90
11656;DHT22;5884;43.618;1.438;2022-09-09T04:59:54;19.20;99.90
11656;DHT22;5884;43.618;1.438;2022-09-09T05:02:21;19.20;99.90
11656;DHT22;5884;43.618;1.438;2022-09-09T05:04:50;19.20;99.90
11656;DHT22;5884;43.618;1.438;2022-09-09T05:07:17;19.20;99.90
11656;DHT22;5884;43.618;1.438;2022-09-09T05:09:44;19.20;99.90
11656;DHT22;5884;43.618;1.438;2022-09-09T05:12:13;19.10;99.90
11656;DHT22;5884;43.618;1.438;2022-09-09T05:14:42;19.20;99.90
11656;DHT22;5884;43.618;1.438;2022-09-09T05:17:09;19.20;99.90
11656;DHT22;5884;43.618;1.438;2022-09-09T05:19:37;19.20;99.90
11656;DHT22;5884;43.618;1.438;2022-09-09T05:22:05;19.20;99.90
11656;DHT22;5884;43.618;1.438;2022-09-09T05:24:33;19.10;99.90
11656;DHT22;5884;43.618;1.438;2022-09-09T05:27:00;19.10;99.90
11656;DHT22;5884;43.618;1.438;2022-09-09T05:29:28;19.20;99.90
11656;DHT22;5884;43.618;1.438;2022-09-09T05:31:57;19.10;99.90
11656;DHT22;5884;43.618;1.438;2022-09-09T05:34:24;19.10;99.90
11656;DHT22;5884;43.618;1.438;2022-09-09T05:36:52;19.10;99.90
11656;DHT22;5884;43.618;1.438;2022-09-09T05:39:21;19.10;99.90
11656;DHT22;5884;43.618;1.438;2022-09-09T05:41:48;19.00;99.90
11656;DHT22;5884;43.618;1.438;2022-09-09T05:44:16;19.00;99.90
11656;DHT22;5884;43.618;1.438;2022-09-09T05:46:44;18.90;99.90
11656;DHT22;5884;43.618;1.438;2022-09-09T05:49:12;18.90;99.90
11656;DHT22;5884;43.618;1.438;2022-09-09T05:51:41;18.90;99.90
11656;DHT22;5884;43.618;1.438;2022-09-09T05:54:09;18.80;99.90
11656;DHT22;5884;43.618;1.438;2022-09-09T05:56:40;18.70;99.90
11656;DHT22;5884;43.618;1.438;2022-09-09T05:59:08;18.70;99.90
11656;DHT22;5884;43.618;1.438;2022-09-09T06:01:36;18.70;99.90
11656;DHT22;5884;43.618;1.438;2022-09-09T06:04:06;18.70;99.90
11656;DHT22;5884;43.618;1.438;2022-09-09T06:06:35;18.70;99.90
11656;DHT22;5884;43.618;1.438;2022-09-09T06:09:06;18.70;99.90
11656;DHT22;5884;43.618;1.438;2022-09-09T06:11:36;18.70;99.90
11656;DHT22;5884;43.618;1.438;2022-09-09T06:14:06;18.60;99.90
11656;DHT22;5884;43.618;1.438;2022-09-09T06:16:34;18.60;99.90
11656;DHT22;5884;43.618;1.438;2022-09-09T06:19:03;18.60;99.90
11656;DHT22;5884;43.618;1.438;2022-09-09T06:21:32;18.60;99.90
11656;DHT22;5884;43.618;1.438;2022-09-09T06:24:02;18.60;99.90
11656;DHT22;5884;43.618;1.438;2022-09-09T06:26:31;18.60;99.90
11656;DHT22;5884;43.618;1.438;2022-09-09T06:28:59;18.70;99.90
11656;DHT22;5884;43.618;1.438;2022-09-09T06:31:31;18.70;99.90
11656;DHT22;5884;43.618;1.438;2022-09-09T06:34:01;18.70;99.90
11656;DHT22;5884;43.618;1.438;2022-09-09T06:36:30;18.70;99.90
11656;DHT22;5884;43.618;1.438;2022-09-09T06:38:58;18.80;99.90
11656;DHT22;5884;43.618;1.438;2022-09-09T06:41:27;18.90;99.90
11656;DHT22;5884;43.618;1.438;2022-09-09T06:43:55;18.90;99.90
11656;DHT22;5884;43.618;1.438;2022-09-09T06:46:23;19.00;99.90
11656;DHT22;5884;43.618;1.438;2022-09-09T06:48:55;19.10;99.90
11656;DHT22;5884;43.618;1.438;2022-09-09T06:51:25;19.10;99.90
11656;DHT22;5884;43.618;1.438;2022-09-09T06:53:55;19.10;99.90
11656;DHT22;5884;43.618;1.438;2022-09-09T06:56:25;19.20;99.90
11656;DHT22;5884;43.618;1.438;2022-09-09T06:58:55;19.20;99.90
11656;DHT22;5884;43.618;1.438;2022-09-09T07:01:25;19.20;99.90
11656;DHT22;5884;43.618;1.438;2022-09-09T07:03:56;19.10;99.90
11656;DHT22;5884;43.618;1.438;2022-09-09T07:06:25;19.10;99.90
11656;DHT22;5884;43.618;1.438;2022-09-09T07:08:55;19.20;99.90
11656;DHT22;5884;43.618;1.438;2022-09-09T07:11:26;19.20;99.90
11656;DHT22;5884;43.618;1.438;2022-09-09T07:13:54;19.20;99.90
11656;DHT22;5884;43.618;1.438;2022-09-09T07:16:23;19.20;99.90
11656;DHT22;5884;43.618;1.438;2022-09-09T07:18:51;19.20;99.90
11656;DHT22;5884;43.618;1.438;2022-09-09T07:21:25;19.20;99.90
11656;DHT22;5884;43.618;1.438;2022-09-09T07:23:54;19.20;99.90
11656;DHT22;5884;43.618;1.438;2022-09-09T07:26:23;19.10;99.90
11656;DHT22;5884;43.618;1.438;2022-09-09T07:28:52;19.10;99.90
11656;DHT22;5884;43.618;1.438;2022-09-09T07:31:21;19.10;99.90
11656;DHT22;5884;43.618;1.438;2022-09-09T07:33:51;19.10;99.90
11656;DHT22;5884;43.618;1.438;2022-09-09T07:36:20;19.10;99.90
11656;DHT22;5884;43.618;1.438;2022-09-09T07:38:51;19.10;99.90
11656;DHT22;5884;43.618;1.438;2022-09-09T07:41:21;19.00;99.90
11656;DHT22;5884;43.618;1.438;2022-09-09T07:43:52;19.00;99.90
11656;DHT22;5884;43.618;1.438;2022-09-09T07:46:22;19.10;99.90
11656;DHT22;5884;43.618;1.438;2022-09-09T07:48:52;19.20;99.90
11656;DHT22;5884;43.618;1.438;2022-09-09T07:51:22;19.10;99.90
11656;DHT22;5884;43.618;1.438;2022-09-09T07:53:54;19.20;99.90
11656;DHT22;5884;43.618;1.438;2022-09-09T07:56:23;19.20;99.90
11656;DHT22;5884;43.618;1.438;2022-09-09T07:58:53;19.20;99.90
11656;DHT22;5884;43.618;1.438;2022-09-09T08:01:23;19.20;99.90
11656;DHT22;5884;43.618;1.438;2022-09-09T08:03:56;19.10;99.90
11656;DHT22;5884;43.618;1.438;2022-09-09T08:06:25;19.10;99.90
11656;DHT22;5884;43.618;1.438;2022-09-09T08:08:55;19.10;99.90
11656;DHT22;5884;43.618;1.438;2022-09-09T08:11:24;19.20;99.90
11656;DHT22;5884;43.618;1.438;2022-09-09T08:13:53;19.20;99.90
11656;DHT22;5884;43.618;1.438;2022-09-09T08:16:22;19.20;99.90
11656;DHT22;5884;43.618;1.438;2022-09-09T08:18:51;19.20;99.90
11656;DHT22;5884;43.618;1.438;2022-09-09T08:21:21;19.20;99.90
11656;DHT22;5884;43.618;1.438;2022-09-09T08:23:51;19.20;99.90
11656;DHT22;5884;43.618;1.438;2022-09-09T08:26:22;19.30;99.90
11656;DHT22;5884;43.618;1.438;2022-09-09T08:28:52;19.20;99.90
11656;DHT22;5884;43.618;1.438;2022-09-09T08:31:23;19.30;99.90
11656;DHT22;5884;43.618;1.438;2022-09-09T08:33:52;19.30;99.90
11656;DHT22;5884;43.618;1.438;2022-09-09T08:36:20;19.30;99.90
11656;DHT22;5884;43.618;1.438;2022-09-09T08:38:50;19.30;99.90
11656;DHT22;5884;43.618;1.438;2022-09-09T08:41:40;19.40;99.90
11656;DHT22;5884;43.618;1.438;2022-09-09T08:44:19;19.50;99.90
11656;DHT22;5884;43.618;1.438;2022-09-09T08:46:58;19.50;99.90
11656;DHT22;5884;43.618;1.438;2022-09-09T08:49:44;19.40;99.90
11656;DHT22;5884;43.618;1.438;2022-09-09T08:52:29;19.40;99.90
11656;DHT22;5884;43.618;1.438;2022-09-09T08:55:03;19.40;99.90
11656;DHT22;5884;43.618;1.438;2022-09-09T08:57:40;19.30;99.90
11656;DHT22;5884;43.618;1.438;2022-09-09T09:00:10;19.30;99.90
11656;DHT22;5884;43.618;1.438;2022-09-09T09:02:43;19.10;99.90
11656;DHT22;5884;43.618;1.438;2022-09-09T09:05:20;19.10;99.90
11656;DHT22;5884;43.618;1.438;2022-09-09T09:07:59;18.80;99.90
11656;DHT22;5884;43.618;1.438;2022-09-09T09:10:45;18.30;99.90
11656;DHT22;5884;43.618;1.438;2022-09-09T09:13:18;18.00;99.90
11656;DHT22;5884;43.618;1.438;2022-09-09T09:15:52;17.90;99.90
11656;DHT22;5884;43.618;1.438;2022-09-09T09:18:22;17.90;99.90
11656;DHT22;5884;43.618;1.438;2022-09-09T09:20:54;17.60;99.90
11656;DHT22;5884;43.618;1.438;2022-09-09T09:23:29;17.70;99.90
11656;DHT22;5884;43.618;1.438;2022-09-09T09:26:01;17.70;99.90
11656;DHT22;5884;43.618;1.438;2022-09-09T09:28:36;17.50;99.90
11656;DHT22;5884;43.618;1.438;2022-09-09T09:31:06;17.60;99.90
11656;DHT22;5884;43.618;1.438;2022-09-09T09:33:38;17.70;99.90
11656;DHT22;5884;43.618;1.438;2022-09-09T09:36:13;17.60;99.90
11656;DHT22;5884;43.618;1.438;2022-09-09T09:38:52;17.90;99.90
11656;DHT22;5884;43.618;1.438;2022-09-09T09:41:32;17.80;99.90
11656;DHT22;5884;43.618;1.438;2022-09-09T09:44:03;18.00;99.90
11656;DHT22;5884;43.618;1.438;2022-09-09T09:46:31;18.00;99.90
11656;DHT22;5884;43.618;1.438;2022-09-09T09:49:00;18.00;99.90
11656;DHT22;5884;43.618;1.438;2022-09-09T09:51:32;17.80;99.90
11656;DHT22;5884;43.618;1.438;2022-09-09T09:54:08;17.90;99.90
11656;DHT22;5884;43.618;1.438;2022-09-09T09:56:43;17.90;99.90
11656;DHT22;5884;43.618;1.438;2022-09-09T09:59:22;18.00;99.90
11656;DHT22;5884;43.618;1.438;2022-09-09T10:01:51;17.90;99.90
11656;DHT22;5884;43.618;1.438;2022-09-09T10:04:19;17.80;99.90
11656;DHT22;5884;43.618;1.438;2022-09-09T10:06:48;17.80;99.90
11656;DHT22;5884;43.618;1.438;2022-09-09T10:09:23;17.80;99.90
11656;DHT22;5884;43.618;1.438;2022-09-09T10:11:56;17.60;99.90
11656;DHT22;5884;43.618;1.438;2022-09-09T10:14:30;17.70;99.90
11656;DHT22;5884;43.618;1.438;2022-09-09T10:17:12;17.80;99.90
11656;DHT22;5884;43.618;1.438;2022-09-09T10:19:53;17.80;99.90
11656;DHT22;5884;43.618;1.438;2022-09-09T10:22:27;17.50;99.90
11656;DHT22;5884;43.618;1.438;2022-09-09T10:28:30;17.70;99.90
11656;DHT22;5884;43.618;1.438;2022-09-09T10:31:15;17.60;99.90
11656;DHT22;5884;43.618;1.438;2022-09-09T10:33:51;17.80;99.90
11656;DHT22;5884;43.618;1.438;2022-09-09T10:36:22;18.10;99.90
11656;DHT22;5884;43.618;1.438;2022-09-09T10:38:56;18.00;99.90
11656;DHT22;5884;43.618;1.438;2022-09-09T10:41:40;18.00;99.90
11656;DHT22;5884;43.618;1.438;2022-09-09T10:44:29;17.90;99.90
11656;DHT22;5884;43.618;1.438;2022-09-09T10:47:39;18.00;99.90
11656;DHT22;5884;43.618;1.438;2022-09-09T10:50:42;18.20;99.90
11656;DHT22;5884;43.618;1.438;2022-09-09T10:53:23;18.30;99.90
11656;DHT22;5884;43.618;1.438;2022-09-09T10:55:59;18.30;99.90
11656;DHT22;5884;43.618;1.438;2022-09-09T10:58:37;18.40;99.90
11656;DHT22;5884;43.618;1.438;2022-09-09T11:01:14;18.20;99.90
11656;DHT22;5884;43.618;1.438;2022-09-09T11:03:49;18.40;99.90
11656;DHT22;5884;43.618;1.438;2022-09-09T11:06:25;18.40;99.90
11656;DHT22;5884;43.618;1.438;2022-09-09T11:08:57;18.60;99.90
11656;DHT22;5884;43.618;1.438;2022-09-09T11:11:31;18.70;99.90
11656;DHT22;5884;43.618;1.438;2022-09-09T11:14:03;18.80;99.90
11656;DHT22;5884;43.618;1.438;2022-09-09T11:16:40;18.90;99.90
11656;DHT22;5884;43.618;1.438;2022-09-09T11:19:16;19.10;99.90
11656;DHT22;5884;43.618;1.438;2022-09-09T11:21:49;19.20;99.90
11656;DHT22;5884;43.618;1.438;2022-09-09T11:24:21;19.40;99.90
11656;DHT22;5884;43.618;1.438;2022-09-09T11:26:53;19.70;99.90
11656;DHT22;5884;43.618;1.438;2022-09-09T11:32:45;19.90;99.90
11656;DHT22;5884;43.618;1.438;2022-09-09T11:35:33;19.70;99.90
11656;DHT22;5884;43.618;1.438;2022-09-09T11:38:23;19.80;99.90
11656;DHT22;5884;43.618;1.438;2022-09-09T11:40:57;19.80;99.90
11656;DHT22;5884;43.618;1.438;2022-09-09T11:43:29;19.60;99.90
11656;DHT22;5884;43.618;1.438;2022-09-09T11:46:00;19.50;99.90
11656;DHT22;5884;43.618;1.438;2022-09-09T11:48:32;19.50;99.90
11656;DHT22;5884;43.618;1.438;2022-09-09T11:51:07;19.60;99.90
11656;DHT22;5884;43.618;1.438;2022-09-09T11:53:48;19.60;99.90
11656;DHT22;5884;43.618;1.438;2022-09-09T11:56:26;19.60;99.90
11656;DHT22;5884;43.618;1.438;2022-09-09T11:59:01;19.90;99.90
11656;DHT22;5884;43.618;1.438;2022-09-09T12:01:37;20.00;99.90
11656;DHT22;5884;43.618;1.438;2022-09-09T12:04:32;20.20;99.90
11656;DHT22;5884;43.618;1.438;2022-09-09T12:07:05;20.30;99.90
11656;DHT22;5884;43.618;1.438;2022-09-09T12:09:52;20.30;99.90
11656;DHT22;5884;43.618;1.438;2022-09-09T12:12:27;20.20;99.90
11656;DHT22;5884;43.618;1.438;2022-09-09T12:14:59;20.20;99.90
11656;DHT22;5884;43.618;1.438;2022-09-09T12:17:47;20.40;99.90
11656;DHT22;5884;43.618;1.438;2022-09-09T12:20:19;20.50;99.90
11656;DHT22;5884;43.618;1.438;2022-09-09T12:26:05;20.70;99.90
11656;DHT22;5884;43.618;1.438;2022-09-09T12:28:49;20.70;99.90
11656;DHT22;5884;43.618;1.438;2022-09-09T12:31:25;20.60;99.90
11656;DHT22;5884;43.618;1.438;2022-09-09T12:34:06;20.70;99.90
11656;DHT22;5884;43.618;1.438;2022-09-09T12:36:38;20.80;99.90
11656;DHT22;5884;43.618;1.438;2022-09-09T12:39:17;20.80;99.90
11656;DHT22;5884;43.618;1.438;2022-09-09T12:41:53;20.90;99.90
11656;DHT22;5884;43.618;1.438;2022-09-09T12:44:24;21.00;99.90
11656;DHT22;5884;43.618;1.438;2022-09-09T12:46:54;21.10;99.90
11656;DHT22;5884;43.618;1.438;2022-09-09T12:49:29;21.10;99.90
11656;DHT22;5884;43.618;1.438;2022-09-09T12:52:02;21.40;99.90
11656;DHT22;5884;43.618;1.438;2022-09-09T12:54:33;21.60;99.90
11656;DHT22;5884;43.618;1.438;2022-09-09T12:57:02;21.40;99.90
11656;DHT22;5884;43.618;1.438;2022-09-09T12:59:37;21.40;99.90
11656;DHT22;5884;43.618;1.438;2022-09-09T13:02:16;21.50;99.90
11656;DHT22;5884;43.618;1.438;2022-09-09T13:04:45;21.70;99.90
11656;DHT22;5884;43.618;1.438;2022-09-09T13:07:13;21.80;99.90
11656;DHT22;5884;43.618;1.438;2022-09-09T13:09:44;21.80;99.90
11656;DHT22;5884;43.618;1.438;2022-09-09T13:12:15;21.70;99.90
11656;DHT22;5884;43.618;1.438;2022-09-09T13:14:46;21.70;99.90
11656;DHT22;5884;43.618;1.438;2022-09-09T13:17:20;22.00;99.90
11656;DHT22;5884;43.618;1.438;2022-09-09T13:19:49;22.10;99.90
11656;DHT22;5884;43.618;1.438;2022-09-09T13:22:21;22.00;99.90
11656;DHT22;5884;43.618;1.438;2022-09-09T13:25:02;22.10;99.90
11656;DHT22;5884;43.618;1.438;2022-09-09T13:27:32;22.20;99.90
11656;DHT22;5884;43.618;1.438;2022-09-09T13:30:20;22.20;99.90
11656;DHT22;5884;43.618;1.438;2022-09-09T13:33:00;22.40;99.90
11656;DHT22;5884;43.618;1.438;2022-09-09T13:35:28;22.40;99.90
11656;DHT22;5884;43.618;1.438;2022-09-09T13:37:56;22.30;99.90
11656;DHT22;5884;43.618;1.438;2022-09-09T13:40:26;22.60;99.90
11656;DHT22;5884;43.618;1.438;2022-09-09T13:42:55;22.50;99.90
11656;DHT22;5884;43.618;1.438;2022-09-09T13:45:25;22.50;99.90
11656;DHT22;5884;43.618;1.438;2022-09-09T13:47:53;22.60;99.90
11656;DHT22;5884;43.618;1.438;2022-09-09T13:50:23;22.60;99.90
11656;DHT22;5884;43.618;1.438;2022-09-09T13:52:52;22.80;99.90
11656;DHT22;5884;43.618;1.438;2022-09-09T13:55:23;22.50;99.90
11656;DHT22;5884;43.618;1.438;2022-09-09T13:57:54;22.50;99.90
11656;DHT22;5884;43.618;1.438;2022-09-09T14:00:22;22.60;99.90
11656;DHT22;5884;43.618;1.438;2022-09-09T14:02:51;22.90;99.90
11656;DHT22;5884;43.618;1.438;2022-09-09T14:05:20;23.20;99.90
11656;DHT22;5884;43.618;1.438;2022-09-09T14:07:49;23.30;99.90
11656;DHT22;5884;43.618;1.438;2022-09-09T14:10:16;23.20;99.90
11656;DHT22;5884;43.618;1.438;2022-09-09T14:12:45;23.00;99.90
11656;DHT22;5884;43.618;1.438;2022-09-09T14:15:13;22.90;99.90
11656;DHT22;5884;43.618;1.438;2022-09-09T14:17:40;23.00;99.90
11656;DHT22;5884;43.618;1.438;2022-09-09T14:20:09;22.90;99.90
11656;DHT22;5884;43.618;1.438;2022-09-09T14:22:37;22.90;99.90
11656;DHT22;5884;43.618;1.438;2022-09-09T14:25:07;22.90;99.90
11656;DHT22;5884;43.618;1.438;2022-09-09T14:27:34;23.00;99.90
11656;DHT22;5884;43.618;1.438;2022-09-09T14:30:04;23.10;99.90
11656;DHT22;5884;43.618;1.438;2022-09-09T14:32:31;23.40;99.90
11656;DHT22;5884;43.618;1.438;2022-09-09T14:34:59;23.40;99.90
11656;DHT22;5884;43.618;1.438;2022-09-09T14:37:27;23.40;99.90
11656;DHT22;5884;43.618;1.438;2022-09-09T14:39:56;23.50;99.90
11656;DHT22;5884;43.618;1.438;2022-09-09T14:42:24;23.50;99.90
11656;DHT22;5884;43.618;1.438;2022-09-09T14:44:51;23.60;99.90
11656;DHT22;5884;43.618;1.438;2022-09-09T14:47:20;23.60;99.90
11656;DHT22;5884;43.618;1.438;2022-09-09T14:49:47;23.70;99.90
11656;DHT22;5884;43.618;1.438;2022-09-09T14:52:15;23.60;99.90
11656;DHT22;5884;43.618;1.438;2022-09-09T14:54:43;23.50;99.90
11656;DHT22;5884;43.618;1.438;2022-09-09T14:57:10;23.30;99.90
11656;DHT22;5884;43.618;1.438;2022-09-09T14:59:37;23.20;99.90
11656;DHT22;5884;43.618;1.438;2022-09-09T15:02:05;23.30;99.90
11656;DHT22;5884;43.618;1.438;2022-09-09T15:04:34;23.30;99.90
11656;DHT22;5884;43.618;1.438;2022-09-09T15:07:01;23.20;99.90
11656;DHT22;5884;43.618;1.438;2022-09-09T15:09:28;23.00;99.90
11656;DHT22;5884;43.618;1.438;2022-09-09T15:11:55;23.00;99.90
11656;DHT22;5884;43.618;1.438;2022-09-09T15:14:23;23.20;99.90
11656;DHT22;5884;43.618;1.438;2022-09-09T15:16:51;23.40;99.90
11656;DHT22;5884;43.618;1.438;2022-09-09T15:19:19;23.40;99.90
11656;DHT22;5884;43.618;1.438;2022-09-09T15:21:47;23.30;99.90
11656;DHT22;5884;43.618;1.438;2022-09-09T15:24:14;23.30;99.90
11656;DHT22;5884;43.618;1.438;2022-09-09T15:26:42;23.20;99.90
11656;DHT22;5884;43.618;1.438;2022-09-09T15:29:09;23.00;99.90
11656;DHT22;5884;43.618;1.438;2022-09-09T15:31:36;23.10;99.90
11656;DHT22;5884;43.618;1.438;2022-09-09T15:34:05;23.10;99.90
11656;DHT22;5884;43.618;1.438;2022-09-09T15:36:34;23.20;99.90
11656;DHT22;5884;43.618;1.438;2022-09-09T15:39:06;23.20;99.90
11656;DHT22;5884;43.618;1.438;2022-09-09T15:41:35;23.30;99.90
11656;DHT22;5884;43.618;1.438;2022-09-09T15:44:02;23.30;99.90
11656;DHT22;5884;43.618;1.438;2022-09-09T15:46:32;23.20;99.90
11656;DHT22;5884;43.618;1.438;2022-09-09T15:49:05;23.30;99.90
11656;DHT22;5884;43.618;1.438;2022-09-09T15:51:35;23.50;99.90
11656;DHT22;5884;43.618;1.438;2022-09-09T15:54:05;23.40;99.90
11656;DHT22;5884;43.618;1.438;2022-09-09T15:56:33;23.40;99.90
11656;DHT22;5884;43.618;1.438;2022-09-09T15:59:01;23.30;99.90
11656;DHT22;5884;43.618;1.438;2022-09-09T16:01:30;23.40;99.90
11656;DHT22;5884;43.618;1.438;2022-09-09T16:03:58;23.50;99.90
11656;DHT22;5884;43.618;1.438;2022-09-09T16:06:28;23.60;99.90
11656;DHT22;5884;43.618;1.438;2022-09-09T16:08:58;23.60;99.90
11656;DHT22;5884;43.618;1.438;2022-09-09T16:11:29;23.80;99.90
11656;DHT22;5884;43.618;1.438;2022-09-09T16:13:58;23.70;99.90
11656;DHT22;5884;43.618;1.438;2022-09-09T16:16:27;23.60;99.90
11656;DHT22;5884;43.618;1.438;2022-09-09T16:18:56;23.50;99.90
11656;DHT22;5884;43.618;1.438;2022-09-09T16:21:26;23.40;99.90
11656;DHT22;5884;43.618;1.438;2022-09-09T16:23:56;23.40;99.90
11656;DHT22;5884;43.618;1.438;2022-09-09T16:26:27;23.40;99.90
11656;DHT22;5884;43.618;1.438;2022-09-09T16:28:54;23.30;99.90
11656;DHT22;5884;43.618;1.438;2022-09-09T16:31:23;23.30;99.90
11656;DHT22;5884;43.618;1.438;2022-09-09T16:33:51;23.30;99.90
11656;DHT22;5884;43.618;1.438;2022-09-09T16:36:20;23.30;99.90
11656;DHT22;5884;43.618;1.438;2022-09-09T16:38:52;23.30;99.90
11656;DHT22;5884;43.618;1.438;2022-09-09T16:41:20;23.30;99.90
11656;DHT22;5884;43.618;1.438;2022-09-09T16:43:52;23.30;99.90
11656;DHT22;5884;43.618;1.438;2022-09-09T16:46:20;23.30;99.90
11656;DHT22;5884;43.618;1.438;2022-09-09T16:48:48;23.20;99.90
11656;DHT22;5884;43.618;1.438;2022-09-09T16:51:17;23.20;99.90
11656;DHT22;5884;43.618;1.438;2022-09-09T16:53:46;23.40;99.90
11656;DHT22;5884;43.618;1.438;2022-09-09T16:56:15;23.40;99.90
11656;DHT22;5884;43.618;1.438;2022-09-09T16:58:50;23.40;99.90
11656;DHT22;5884;43.618;1.438;2022-09-09T17:01:19;23.40;99.90
11656;DHT22;5884;43.618;1.438;2022-09-09T17:03:47;23.30;99.90
11656;DHT22;5884;43.618;1.438;2022-09-09T17:06:15;23.20;99.90
11656;DHT22;5884;43.618;1.438;2022-09-09T17:08:42;23.20;99.90
11656;DHT22;5884;43.618;1.438;2022-09-09T17:11:12;23.20;99.90
11656;DHT22;5884;43.618;1.438;2022-09-09T17:13:41;23.20;99.90
11656;DHT22;5884;43.618;1.438;2022-09-09T17:16:11;23.20;99.90
11656;DHT22;5884;43.618;1.438;2022-09-09T17:18:40;23.10;99.90
11656;DHT22;5884;43.618;1.438;2022-09-09T17:21:08;23.10;99.90
11656;DHT22;5884;43.618;1.438;2022-09-09T17:23:37;23.10;99.90
11656;DHT22;5884;43.618;1.438;2022-09-09T17:26:06;23.20;99.90
11656;DHT22;5884;43.618;1.438;2022-09-09T17:28:35;23.30;99.90
11656;DHT22;5884;43.618;1.438;2022-09-09T17:31:05;23.20;99.90
11656;DHT22;5884;43.618;1.438;2022-09-09T17:33:36;23.20;99.90
11656;DHT22;5884;43.618;1.438;2022-09-09T17:36:08;23.10;99.90
11656;DHT22;5884;43.618;1.438;2022-09-09T17:38:37;23.00;99.90
11656;DHT22;5884;43.618;1.438;2022-09-09T17:41:07;22.90;99.90
11656;DHT22;5884;43.618;1.438;2022-09-09T17:43:36;22.80;99.90
11656;DHT22;5884;43.618;1.438;2022-09-09T17:46:08;22.70;99.90
11656;DHT22;5884;43.618;1.438;2022-09-09T17:48:38;22.60;99.90
11656;DHT22;5884;43.618;1.438;2022-09-09T17:51:07;22.50;99.90
11656;DHT22;5884;43.618;1.438;2022-09-09T17:53:36;22.50;99.90
11656;DHT22;5884;43.618;1.438;2022-09-09T17:56:06;22.40;99.90
11656;DHT22;5884;43.618;1.438;2022-09-09T17:58:34;22.40;99.90
11656;DHT22;5884;43.618;1.438;2022-09-09T18:01:03;22.30;99.90
11656;DHT22;5884;43.618;1.438;2022-09-09T18:03:32;22.20;99.90
11656;DHT22;5884;43.618;1.438;2022-09-09T18:06:03;22.20;99.90
11656;DHT22;5884;43.618;1.438;2022-09-09T18:08:34;22.20;99.90
11656;DHT22;5884;43.618;1.438;2022-09-09T18:11:02;22.10;99.90
11656;DHT22;5884;43.618;1.438;2022-09-09T18:13:30;22.00;99.90
11656;DHT22;5884;43.618;1.438;2022-09-09T18:15:58;21.90;99.90
11656;DHT22;5884;43.618;1.438;2022-09-09T18:18:26;21.90;99.90
11656;DHT22;5884;43.618;1.438;2022-09-09T18:20:58;21.80;99.90
11656;DHT22;5884;43.618;1.438;2022-09-09T18:23:28;21.80;99.90
11656;DHT22;5884;43.618;1.438;2022-09-09T18:25:57;21.80;99.90
11656;DHT22;5884;43.618;1.438;2022-09-09T18:28:25;21.80;99.90
11656;DHT22;5884;43.618;1.438;2022-09-09T18:30:53;21.70;99.90
11656;DHT22;5884;43.618;1.438;2022-09-09T18:33:20;21.60;99.90
11656;DHT22;5884;43.618;1.438;2022-09-09T18:35:47;21.60;99.90
11656;DHT22;5884;43.618;1.438;2022-09-09T18:38:15;21.60;99.90
11656;DHT22;5884;43.618;1.438;2022-09-09T18:40:44;21.60;99.90
11656;DHT22;5884;43.618;1.438;2022-09-09T18:43:11;21.60;99.90
11656;DHT22;5884;43.618;1.438;2022-09-09T18:45:38;21.70;99.90
11656;DHT22;5884;43.618;1.438;2022-09-09T18:48:05;21.60;99.90
11656;DHT22;5884;43.618;1.438;2022-09-09T18:50:33;21.60;99.90
11656;DHT22;5884;43.618;1.438;2022-09-09T18:53:00;21.50;99.90
11656;DHT22;5884;43.618;1.438;2022-09-09T18:55:27;21.50;99.90
11656;DHT22;5884;43.618;1.438;2022-09-09T18:57:56;21.40;99.90
11656;DHT22;5884;43.618;1.438;2022-09-09T19:00:24;21.40;99.90
11656;DHT22;5884;43.618;1.438;2022-09-09T19:02:52;21.30;99.90
11656;DHT22;5884;43.618;1.438;2022-09-09T19:05:19;21.30;99.90
11656;DHT22;5884;43.618;1.438;2022-09-09T19:07:46;21.20;99.90
11656;DHT22;5884;43.618;1.438;2022-09-09T19:10:13;21.20;99.90
11656;DHT22;5884;43.618;1.438;2022-09-09T19:12:41;21.10;99.90
11656;DHT22;5884;43.618;1.438;2022-09-09T19:15:09;21.10;99.90
11656;DHT22;5884;43.618;1.438;2022-09-09T19:17:37;21.10;99.90
11656;DHT22;5884;43.618;1.438;2022-09-09T19:20:05;21.00;99.90
11656;DHT22;5884;43.618;1.438;2022-09-09T19:22:34;21.00;99.90
11656;DHT22;5884;43.618;1.438;2022-09-09T19:25:02;21.00;99.90
11656;DHT22;5884;43.618;1.438;2022-09-09T19:27:31;21.00;99.90
11656;DHT22;5884;43.618;1.438;2022-09-09T19:29:58;20.90;99.90
11656;DHT22;5884;43.618;1.438;2022-09-09T19:32:27;20.90;99.90
11656;DHT22;5884;43.618;1.438;2022-09-09T19:34:54;20.90;99.90
11656;DHT22;5884;43.618;1.438;2022-09-09T19:37:21;20.80;99.90
11656;DHT22;5884;43.618;1.438;2022-09-09T19:39:49;20.80;99.90
11656;DHT22;5884;43.618;1.438;2022-09-09T19:42:16;20.70;99.90
11656;DHT22;5884;43.618;1.438;2022-09-09T19:44:43;20.70;99.90
11656;DHT22;5884;43.618;1.438;2022-09-09T19:47:11;20.70;99.90
11656;DHT22;5884;43.618;1.438;2022-09-09T19:49:40;20.60;99.90
11656;DHT22;5884;43.618;1.438;2022-09-09T19:52:08;20.60;99.90
11656;DHT22;5884;43.618;1.438;2022-09-09T19:54:36;20.50;99.90
11656;DHT22;5884;43.618;1.438;2022-09-09T19:57:03;20.50;99.90
11656;DHT22;5884;43.618;1.438;2022-09-09T19:59:31;20.50;99.90
11656;DHT22;5884;43.618;1.438;2022-09-09T20:01:58;20.40;99.90
11656;DHT22;5884;43.618;1.438;2022-09-09T20:04:25;20.40;99.90
11656;DHT22;5884;43.618;1.438;2022-09-09T20:06:54;20.30;99.90
11656;DHT22;5884;43.618;1.438;2022-09-09T20:09:21;20.30;99.90
11656;DHT22;5884;43.618;1.438;2022-09-09T20:11:50;20.30;99.90
11656;DHT22;5884;43.618;1.438;2022-09-09T20:14:18;20.20;99.90
11656;DHT22;5884;43.618;1.438;2022-09-09T20:16:45;20.20;99.90
11656;DHT22;5884;43.618;1.438;2022-09-09T20:19:14;20.20;99.90
11656;DHT22;5884;43.618;1.438;2022-09-09T20:21:43;20.10;99.90
11656;DHT22;5884;43.618;1.438;2022-09-09T20:24:15;20.20;99.90
11656;DHT22;5884;43.618;1.438;2022-09-09T20:26:44;20.20;99.90
11656;DHT22;5884;43.618;1.438;2022-09-09T20:29:14;20.10;99.90
11656;DHT22;5884;43.618;1.438;2022-09-09T20:31:43;20.10;99.90
11656;DHT22;5884;43.618;1.438;2022-09-09T20:34:12;20.00;99.90
11656;DHT22;5884;43.618;1.438;2022-09-09T20:36:43;20.00;99.90
11656;DHT22;5884;43.618;1.438;2022-09-09T20:39:12;20.00;99.90
11656;DHT22;5884;43.618;1.438;2022-09-09T20:41:42;19.90;99.90
11656;DHT22;5884;43.618;1.438;2022-09-09T20:44:13;19.90;99.90
11656;DHT22;5884;43.618;1.438;2022-09-09T20:46:43;19.80;99.90
11656;DHT22;5884;43.618;1.438;2022-09-09T20:49:13;19.90;99.90
11656;DHT22;5884;43.618;1.438;2022-09-09T20:51:42;19.80;99.90
11656;DHT22;5884;43.618;1.438;2022-09-09T20:54:11;19.70;99.90
11656;DHT22;5884;43.618;1.438;2022-09-09T20:56:43;19.70;99.90
11656;DHT22;5884;43.618;1.438;2022-09-09T20:59:13;19.70;99.90
